sensor_id;sensor_type;location;lat;lon;timestamp;pressure;altitude;pressure_sealevel;temperature;humidity
60240;BME280;46102;39.012;-7.064;2023-12-22T00:01:52;99633.94;;;9.15;100.00
60240;BME280;46102;39.012;-7.064;2023-12-22T00:03:53;99630.13;;;9.11;100.00
60240;BME280;46102;39.012;-7.064;2023-12-22T00:05:53;99623.56;;;9.07;100.00
60240;BME280;46102;39.012;-7.064;2023-12-22T00:07:54;99623.88;;;9.05;100.00
60240;BME280;46102;39.012;-7.064;2023-12-22T00:09:55;99618.16;;;8.96;100.00
60240;BME280;46102;39.012;-7.064;2023-12-22T00:11:56;99619.00;;;8.87;100.00
60240;BME280;46102;39.012;-7.064;2023-12-22T00:13:57;99618.50;;;8.74;100.00
60240;BME280;46102;39.012;-7.064;2023-12-22T00:15:58;99617.16;;;8.67;100.00
60240;BME280;46102;39.012;-7.064;2023-12-22T00:17:59;99615.53;;;8.66;100.00
60240;BME280;46102;39.012;-7.064;2023-12-22T00:19:59;99623.47;;;8.67;100.00
60240;BME280;46102;39.012;-7.064;2023-12-22T00:22:03;99620.16;;;8.70;100.00
60240;BME280;46102;39.012;-7.064;2023-12-22T00:24:04;99611.16;;;8.70;100.00
60240;BME280;46102;39.012;-7.064;2023-12-22T00:26:05;99607.03;;;8.72;100.00
60240;BME280;46102;39.012;-7.064;2023-12-22T00:28:06;99609.75;;;8.78;100.00
60240;BME280;46102;39.012;-7.064;2023-12-22T00:30:07;99610.59;;;8.78;100.00
60240;BME280;46102;39.012;-7.064;2023-12-22T00:32:08;99608.41;;;8.70;100.00
60240;BME280;46102;39.012;-7.064;2023-12-22T00:34:10;99619.66;;;8.63;100.00
60240;BME280;46102;39.012;-7.064;2023-12-22T00:36:10;99605.44;;;8.61;100.00
60240;BME280;46102;39.012;-7.064;2023-12-22T00:38:11;99617.22;;;8.57;100.00
60240;BME280;46102;39.012;-7.064;2023-12-22T00:40:12;99618.28;;;8.55;100.00
60240;BME280;46102;39.012;-7.064;2023-12-22T00:42:13;99612.56;;;8.52;100.00
60240;BME280;46102;39.012;-7.064;2023-12-22T00:44:14;99612.03;;;8.50;100.00
60240;BME280;46102;39.012;-7.064;2023-12-22T00:46:14;99615.56;;;8.50;100.00
60240;BME280;46102;39.012;-7.064;2023-12-22T00:48:15;99609.56;;;8.48;100.00
60240;BME280;46102;39.012;-7.064;2023-12-22T00:50:16;99613.94;;;8.44;100.00
60240;BME280;46102;39.012;-7.064;2023-12-22T00:52:17;99610.13;;;8.45;100.00
60240;BME280;46102;39.012;-7.064;2023-12-22T00:54:18;99614.75;;;8.50;100.00
60240;BME280;46102;39.012;-7.064;2023-12-22T00:56:19;99616.41;;;8.56;100.00
60240;BME280;46102;39.012;-7.064;2023-12-22T00:58:20;99611.72;;;8.62;100.00
60240;BME280;46102;39.012;-7.064;2023-12-22T01:00:20;99609.25;;;8.65;100.00
60240;BME280;46102;39.012;-7.064;2023-12-22T01:02:21;99610.59;;;8.68;100.00
60240;BME280;46102;39.012;-7.064;2023-12-22T01:04:22;99595.81;;;8.69;100.00
60240;BME280;46102;39.012;-7.064;2023-12-22T01:06:23;99601.00;;;8.70;100.00
60240;BME280;46102;39.012;-7.064;2023-12-22T01:08:23;99604.28;;;8.72;100.00
60240;BME280;46102;39.012;-7.064;2023-12-22T01:10:24;99603.47;;;8.77;100.00
60240;BME280;46102;39.012;-7.064;2023-12-22T01:12:25;99610.59;;;8.78;100.00
60240;BME280;46102;39.012;-7.064;2023-12-22T01:14:26;99598.53;;;8.79;100.00
60240;BME280;46102;39.012;-7.064;2023-12-22T01:16:26;99603.44;;;8.82;100.00
60240;BME280;46102;39.012;-7.064;2023-12-22T01:18:27;99597.69;;;8.84;100.00
60240;BME280;46102;39.012;-7.064;2023-12-22T01:20:30;99600.16;;;8.85;100.00
60240;BME280;46102;39.012;-7.064;2023-12-22T01:22:31;99591.41;;;8.83;100.00
60240;BME280;46102;39.012;-7.064;2023-12-22T01:24:33;99594.69;;;8.80;100.00
60240;BME280;46102;39.012;-7.064;2023-12-22T01:26:34;99597.72;;;8.79;100.00
60240;BME280;46102;39.012;-7.064;2023-12-22T01:28:35;99588.16;;;8.76;100.00
60240;BME280;46102;39.012;-7.064;2023-12-22T01:30:36;99587.84;;;8.78;100.00
60240;BME280;46102;39.012;-7.064;2023-12-22T01:32:37;99582.09;;;8.79;100.00
60240;BME280;46102;39.012;-7.064;2023-12-22T01:34:37;99582.91;;;8.80;100.00
60240;BME280;46102;39.012;-7.064;2023-12-22T01:36:38;99586.47;;;8.80;100.00
60240;BME280;46102;39.012;-7.064;2023-12-22T01:38:39;99590.03;;;8.81;100.00
60240;BME280;46102;39.012;-7.064;2023-12-22T01:40:40;99583.22;;;8.78;100.00
60240;BME280;46102;39.012;-7.064;2023-12-22T01:42:40;99583.72;;;8.80;100.00
60240;BME280;46102;39.012;-7.064;2023-12-22T01:44:41;99582.66;;;8.81;100.00
60240;BME280;46102;39.012;-7.064;2023-12-22T01:46:42;99570.88;;;8.81;100.00
60240;BME280;46102;39.012;-7.064;2023-12-22T01:48:43;99571.19;;;8.74;100.00
60240;BME280;46102;39.012;-7.064;2023-12-22T01:50:44;99567.66;;;8.68;100.00
60240;BME280;46102;39.012;-7.064;2023-12-22T01:52:45;99574.50;;;8.66;100.00
60240;BME280;46102;39.012;-7.064;2023-12-22T01:54:45;99581.91;;;8.65;100.00
60240;BME280;46102;39.012;-7.064;2023-12-22T01:56:46;99579.44;;;8.64;100.00
60240;BME280;46102;39.012;-7.064;2023-12-22T01:58:47;99577.50;;;8.64;100.00
60240;BME280;46102;39.012;-7.064;2023-12-22T02:00:53;99582.16;;;8.64;100.00
60240;BME280;46102;39.012;-7.064;2023-12-22T02:02:55;99580.78;;;8.66;100.00
60240;BME280;46102;39.012;-7.064;2023-12-22T02:04:57;99578.63;;;8.63;100.00
60240;BME280;46102;39.012;-7.064;2023-12-22T02:07:01;99583.81;;;8.60;100.00
60240;BME280;46102;39.012;-7.064;2023-12-22T02:09:02;99587.97;;;8.52;100.00
60240;BME280;46102;39.012;-7.064;2023-12-22T02:11:04;99586.56;;;8.54;100.00
60240;BME280;46102;39.012;-7.064;2023-12-22T02:13:05;99587.97;;;8.52;100.00
60240;BME280;46102;39.012;-7.064;2023-12-22T02:15:06;99592.34;;;8.48;100.00
60240;BME280;46102;39.012;-7.064;2023-12-22T02:17:17;99594.78;;;8.39;100.00
60240;BME280;46102;39.012;-7.064;2023-12-22T02:19:39;99595.91;;;8.28;100.00
60240;BME280;46102;39.012;-7.064;2023-12-22T02:22:02;99596.50;;;8.20;100.00
60240;BME280;46102;39.012;-7.064;2023-12-22T02:24:03;99596.50;;;8.20;100.00
60240;BME280;46102;39.012;-7.064;2023-12-22T02:26:33;99595.94;;;8.23;100.00
60240;BME280;46102;39.012;-7.064;2023-12-22T02:28:38;99596.75;;;8.18;100.00
60240;BME280;46102;39.012;-7.064;2023-12-22T02:33:04;99593.19;;;8.12;100.00
60240;BME280;46102;39.012;-7.064;2023-12-22T02:35:10;99594.84;;;8.13;100.00
60240;BME280;46102;39.012;-7.064;2023-12-22T02:37:11;99606.06;;;8.07;100.00
60240;BME280;46102;39.012;-7.064;2023-12-22T02:39:14;99604.72;;;8.04;100.00
60240;BME280;46102;39.012;-7.064;2023-12-22T02:41:15;99608.25;;;8.10;100.00
60240;BME280;46102;39.012;-7.064;2023-12-22T02:43:16;99607.97;;;8.17;100.00
60240;BME280;46102;39.012;-7.064;2023-12-22T02:45:18;99610.44;;;8.13;100.00
60240;BME280;46102;39.012;-7.064;2023-12-22T02:47:19;99603.59;;;8.05;100.00
60240;BME280;46102;39.012;-7.064;2023-12-22T02:49:20;99593.75;;;7.99;100.00
60240;BME280;46102;39.012;-7.064;2023-12-22T02:51:20;99580.94;;;8.00;100.00
60240;BME280;46102;39.012;-7.064;2023-12-22T02:53:21;99589.38;;;8.03;100.00
60240;BME280;46102;39.012;-7.064;2023-12-22T02:55:22;99583.91;;;8.03;100.00
60240;BME280;46102;39.012;-7.064;2023-12-22T02:57:23;99587.78;;;7.97;100.00
60240;BME280;46102;39.012;-7.064;2023-12-22T02:59:23;99591.06;;;7.89;100.00
60240;BME280;46102;39.012;-7.064;2023-12-22T03:01:25;99588.31;;;7.84;100.00
60240;BME280;46102;39.012;-7.064;2023-12-22T03:03:26;99579.84;;;7.80;100.00
60240;BME280;46102;39.012;-7.064;2023-12-22T03:05:27;99584.75;;;7.78;100.00
60240;BME280;46102;39.012;-7.064;2023-12-22T03:07:27;99585.31;;;7.70;100.00
60240;BME280;46102;39.012;-7.064;2023-12-22T03:09:28;99575.47;;;7.69;100.00
60240;BME280;46102;39.012;-7.064;2023-12-22T03:11:29;99574.66;;;7.68;100.00
60240;BME280;46102;39.012;-7.064;2023-12-22T03:13:30;99580.38;;;7.72;100.00
60240;BME280;46102;39.012;-7.064;2023-12-22T03:15:30;99580.69;;;7.70;100.00
60240;BME280;46102;39.012;-7.064;2023-12-22T03:17:31;99579.31;;;7.68;100.00
60240;BME280;46102;39.012;-7.064;2023-12-22T03:19:33;99573.28;;;7.56;100.00
60240;BME280;46102;39.012;-7.064;2023-12-22T03:21:34;99568.94;;;7.55;100.00
60240;BME280;46102;39.012;-7.064;2023-12-22T03:23:34;99567.81;;;7.56;100.00
60240;BME280;46102;39.012;-7.064;2023-12-22T03:25:35;99572.75;;;7.54;100.00
60240;BME280;46102;39.012;-7.064;2023-12-22T03:27:37;99577.66;;;7.46;100.00
60240;BME280;46102;39.012;-7.064;2023-12-22T03:29:39;99569.19;;;7.43;100.00
60240;BME280;46102;39.012;-7.064;2023-12-22T03:31:40;99571.66;;;7.44;100.00
60240;BME280;46102;39.012;-7.064;2023-12-22T03:33:40;99575.22;;;7.50;100.00
60240;BME280;46102;39.012;-7.064;2023-12-22T03:35:41;99576.28;;;7.49;100.00
60240;BME280;46102;39.012;-7.064;2023-12-22T03:37:42;99569.75;;;7.50;100.00
60240;BME280;46102;39.012;-7.064;2023-12-22T03:39:43;99565.66;;;7.53;100.00
60240;BME280;46102;39.012;-7.064;2023-12-22T03:41:43;99558.84;;;7.50;100.00
60240;BME280;46102;39.012;-7.064;2023-12-22T03:43:44;99567.03;;;7.50;100.00
60240;BME280;46102;39.012;-7.064;2023-12-22T03:45:45;99553.91;;;7.47;100.00
60240;BME280;46102;39.012;-7.064;2023-12-22T03:47:46;99542.72;;;7.43;100.00
60240;BME280;46102;39.012;-7.064;2023-12-22T03:49:47;99542.16;;;7.41;100.00
60240;BME280;46102;39.012;-7.064;2023-12-22T03:51:47;99538.88;;;7.39;100.00
60240;BME280;46102;39.012;-7.064;2023-12-22T03:53:48;99542.44;;;7.45;100.00
60240;BME280;46102;39.012;-7.064;2023-12-22T03:55:49;99543.28;;;7.45;100.00
60240;BME280;46102;39.012;-7.064;2023-12-22T03:57:50;99546.50;;;7.47;100.00
60240;BME280;46102;39.012;-7.064;2023-12-22T03:59:50;99537.81;;;7.45;100.00
60240;BME280;46102;39.012;-7.064;2023-12-22T04:01:52;99545.16;;;7.40;100.00
60240;BME280;46102;39.012;-7.064;2023-12-22T04:03:53;99551.16;;;7.42;100.00
60240;BME280;46102;39.012;-7.064;2023-12-22T04:05:54;99546.81;;;7.46;100.00
60240;BME280;46102;39.012;-7.064;2023-12-22T04:07:55;99545.19;;;7.50;100.00
60240;BME280;46102;39.012;-7.064;2023-12-22T04:09:55;99552.25;;;7.51;100.00
60240;BME280;46102;39.012;-7.064;2023-12-22T04:11:56;99545.19;;;7.50;100.00
60240;BME280;46102;39.012;-7.064;2023-12-22T04:13:57;99538.63;;;7.51;100.00
60240;BME280;46102;39.012;-7.064;2023-12-22T04:15:58;99534.53;;;7.48;100.00
60240;BME280;46102;39.012;-7.064;2023-12-22T04:17:58;99527.69;;;7.46;100.00
60240;BME280;46102;39.012;-7.064;2023-12-22T04:19:59;99533.69;;;7.43;100.00
60240;BME280;46102;39.012;-7.064;2023-12-22T04:22:00;99530.97;;;7.38;100.00
60240;BME280;46102;39.012;-7.064;2023-12-22T04:24:01;99535.34;;;7.39;100.00
60240;BME280;46102;39.012;-7.064;2023-12-22T04:26:01;99532.59;;;7.34;100.00
60240;BME280;46102;39.012;-7.064;2023-12-22T04:28:03;99536.97;;;7.29;100.00
60240;BME280;46102;39.012;-7.064;2023-12-22T04:30:04;99536.13;;;7.24;100.00
60240;BME280;46102;39.012;-7.064;2023-12-22T04:32:05;99535.03;;;7.20;100.00
60240;BME280;46102;39.012;-7.064;2023-12-22T04:34:05;99541.06;;;7.17;100.00
60240;BME280;46102;39.012;-7.064;2023-12-22T04:36:06;99543.53;;;7.18;100.00
60240;BME280;46102;39.012;-7.064;2023-12-22T04:38:07;99541.59;;;7.24;100.00
60240;BME280;46102;39.012;-7.064;2023-12-22T04:40:08;99531.22;;;7.26;100.00
60240;BME280;46102;39.012;-7.064;2023-12-22T04:42:09;99530.97;;;7.33;100.00
60240;BME280;46102;39.012;-7.064;2023-12-22T04:44:10;99533.69;;;7.38;100.00
60240;BME280;46102;39.012;-7.064;2023-12-22T04:46:11;99521.41;;;7.40;100.00
60240;BME280;46102;39.012;-7.064;2023-12-22T04:48:12;99520.31;;;7.36;100.00
60240;BME280;46102;39.012;-7.064;2023-12-22T04:50:12;99521.16;;;7.37;100.00
60240;BME280;46102;39.012;-7.064;2023-12-22T04:52:13;99528.50;;;7.26;100.00
60240;BME280;46102;39.012;-7.064;2023-12-22T04:54:14;99524.13;;;7.15;100.00
60240;BME280;46102;39.012;-7.064;2023-12-22T04:56:15;99524.66;;;7.06;100.00
60240;BME280;46102;39.012;-7.064;2023-12-22T04:58:16;99524.66;;;7.06;100.00
60240;BME280;46102;39.012;-7.064;2023-12-22T05:00:17;99532.31;;;7.09;100.00
60240;BME280;46102;39.012;-7.064;2023-12-22T05:02:18;99521.09;;;7.11;100.00
60240;BME280;46102;39.012;-7.064;2023-12-22T05:04:18;99516.47;;;7.06;100.00
60240;BME280;46102;39.012;-7.064;2023-12-22T05:06:19;99512.09;;;7.00;100.00
60240;BME280;46102;39.012;-7.064;2023-12-22T05:08:20;99513.44;;;6.98;100.00
60240;BME280;46102;39.012;-7.064;2023-12-22T05:10:21;99519.44;;;7.00;100.00
60240;BME280;46102;39.012;-7.064;2023-12-22T05:12:22;99520.00;;;7.02;100.00
60240;BME280;46102;39.012;-7.064;2023-12-22T05:14:22;99520.56;;;7.04;100.00
60240;BME280;46102;39.012;-7.064;2023-12-22T05:16:23;99516.19;;;7.03;100.00
60240;BME280;46102;39.012;-7.064;2023-12-22T05:18:24;99507.97;;;6.98;100.00
60240;BME280;46102;39.012;-7.064;2023-12-22T05:20:25;99504.44;;;6.97;100.00
60240;BME280;46102;39.012;-7.064;2023-12-22T05:22:25;99512.63;;;7.02;100.00
60240;BME280;46102;39.012;-7.064;2023-12-22T05:24:26;99508.53;;;7.00;100.00
60240;BME280;46102;39.012;-7.064;2023-12-22T05:26:27;99509.91;;;6.92;100.00
60240;BME280;46102;39.012;-7.064;2023-12-22T05:28:30;99503.03;;;6.84;100.00
60240;BME280;46102;39.012;-7.064;2023-12-22T05:30:31;99506.88;;;6.83;100.00
60240;BME280;46102;39.012;-7.064;2023-12-22T05:32:32;99507.41;;;6.80;100.00
60240;BME280;46102;39.012;-7.064;2023-12-22T05:34:33;99505.75;;;6.74;100.00
60240;BME280;46102;39.012;-7.064;2023-12-22T05:36:34;99508.50;;;6.74;100.00
60240;BME280;46102;39.012;-7.064;2023-12-22T05:38:38;99510.13;;;6.75;100.00
60240;BME280;46102;39.012;-7.064;2023-12-22T05:40:39;99506.06;;;6.78;100.00
60240;BME280;46102;39.012;-7.064;2023-12-22T05:42:40;99518.84;;;6.77;100.00
60240;BME280;46102;39.012;-7.064;2023-12-22T05:44:41;99521.88;;;6.81;100.00
60240;BME280;46102;39.012;-7.064;2023-12-22T05:46:41;99521.06;;;6.91;100.00
60240;BME280;46102;39.012;-7.064;2023-12-22T05:48:42;99519.72;;;6.93;100.00
60240;BME280;46102;39.012;-7.064;2023-12-22T05:50:43;99515.91;;;6.89;100.00
60240;BME280;46102;39.012;-7.064;2023-12-22T05:52:44;99516.16;;;6.82;100.00
60240;BME280;46102;39.012;-7.064;2023-12-22T05:54:45;99521.06;;;6.80;100.00
60240;BME280;46102;39.012;-7.064;2023-12-22T05:56:46;99523.78;;;6.85;100.00
60240;BME280;46102;39.012;-7.064;2023-12-22T05:58:48;99527.63;;;6.90;100.00
60240;BME280;46102;39.012;-7.064;2023-12-22T06:00:49;99520.81;;;6.92;100.00
60240;BME280;46102;39.012;-7.064;2023-12-22T06:02:50;99521.91;;;6.96;100.00
60240;BME280;46102;39.012;-7.064;2023-12-22T06:04:51;99520.00;;;7.02;100.00
60240;BME280;46102;39.012;-7.064;2023-12-22T06:06:51;99524.66;;;7.06;100.00
60240;BME280;46102;39.012;-7.064;2023-12-22T06:08:52;99521.66;;;7.08;100.00
60240;BME280;46102;39.012;-7.064;2023-12-22T06:10:53;99529.03;;;7.07;100.00
60240;BME280;46102;39.012;-7.064;2023-12-22T06:12:54;99523.28;;;7.09;100.00
60240;BME280;46102;39.012;-7.064;2023-12-22T06:14:54;99534.75;;;7.06;100.00
60240;BME280;46102;39.012;-7.064;2023-12-22T06:16:55;99538.28;;;7.06;100.00
60240;BME280;46102;39.012;-7.064;2023-12-22T06:18:58;99541.84;;;7.07;100.00
60240;BME280;46102;39.012;-7.064;2023-12-22T06:20:58;99533.69;;;7.07;100.00
60240;BME280;46102;39.012;-7.064;2023-12-22T06:22:59;99532.84;;;7.01;100.00
60240;BME280;46102;39.012;-7.064;2023-12-22T06:25:00;99537.44;;;6.96;100.00
60240;BME280;46102;39.012;-7.064;2023-12-22T06:27:03;99538.25;;;6.86;100.00
60240;BME280;46102;39.012;-7.064;2023-12-22T06:29:04;99535.47;;;6.71;100.00
60240;BME280;46102;39.012;-7.064;2023-12-22T06:31:06;99539.25;;;6.59;100.00
60240;BME280;46102;39.012;-7.064;2023-12-22T06:33:06;99544.69;;;6.49;100.00
60240;BME280;46102;39.012;-7.064;2023-12-22T06:35:07;99536.47;;;6.44;100.00
60240;BME280;46102;39.012;-7.064;2023-12-22T06:37:10;99540.78;;;6.35;100.00
60240;BME280;46102;39.012;-7.064;2023-12-22T06:39:11;99549.25;;;6.33;100.00
60240;BME280;46102;39.012;-7.064;2023-12-22T06:41:20;99544.28;;;6.30;100.00
60240;BME280;46102;39.012;-7.064;2023-12-22T06:43:21;99537.78;;;6.31;100.00
60240;BME280;46102;39.012;-7.064;2023-12-22T06:45:22;99538.03;;;6.35;100.00
60240;BME280;46102;39.012;-7.064;2023-12-22T06:47:22;99531.28;;;6.37;100.00
60240;BME280;46102;39.012;-7.064;2023-12-22T06:49:23;99536.75;;;6.42;100.00
60240;BME280;46102;39.012;-7.064;2023-12-22T06:51:29;99537.00;;;6.41;100.00
60240;BME280;46102;39.012;-7.064;2023-12-22T06:53:36;99534.28;;;6.41;100.00
60240;BME280;46102;39.012;-7.064;2023-12-22T06:55:37;99535.38;;;6.40;100.00
60240;BME280;46102;39.012;-7.064;2023-12-22T06:57:37;99544.84;;;6.32;100.00
60240;BME280;46102;39.012;-7.064;2023-12-22T06:59:39;99536.34;;;6.23;100.00
60240;BME280;46102;39.012;-7.064;2023-12-22T07:01:39;99539.38;;;6.22;100.00
60240;BME280;46102;39.012;-7.064;2023-12-22T07:03:40;99541.28;;;6.21;100.00
60240;BME280;46102;39.012;-7.064;2023-12-22T07:05:41;99536.59;;;6.17;100.00
60240;BME280;46102;39.012;-7.064;2023-12-22T07:07:42;99536.88;;;6.15;100.00
60240;BME280;46102;39.012;-7.064;2023-12-22T07:09:42;99536.06;;;6.15;100.00
60240;BME280;46102;39.012;-7.064;2023-12-22T07:11:50;99535.22;;;6.14;100.00
60240;BME280;46102;39.012;-7.064;2023-12-22T07:13:51;99526.22;;;6.14;100.00
60240;BME280;46102;39.012;-7.064;2023-12-22T07:15:52;99532.78;;;6.13;100.00
60240;BME280;46102;39.012;-7.064;2023-12-22T07:17:53;99528.38;;;6.07;100.00
60240;BME280;46102;39.012;-7.064;2023-12-22T07:19:54;99534.63;;;6.07;100.00
60240;BME280;46102;39.012;-7.064;2023-12-22T07:21:58;99529.72;;;6.04;100.00
60240;BME280;46102;39.012;-7.064;2023-12-22T07:23:58;99534.63;;;6.02;100.00
60240;BME280;46102;39.012;-7.064;2023-12-22T07:25:59;99540.56;;;5.99;100.00
60240;BME280;46102;39.012;-7.064;2023-12-22T07:28:00;99536.47;;;5.96;100.00
60240;BME280;46102;39.012;-7.064;2023-12-22T07:30:01;99532.56;;;5.87;100.00
60240;BME280;46102;39.012;-7.064;2023-12-22T07:32:02;99534.41;;;5.76;100.00
60240;BME280;46102;39.012;-7.064;2023-12-22T07:34:02;99543.91;;;5.69;100.00
60240;BME280;46102;39.012;-7.064;2023-12-22T07:36:04;99547.16;;;5.66;100.00
60240;BME280;46102;39.012;-7.064;2023-12-22T07:38:05;99546.06;;;5.67;100.00
60240;BME280;46102;39.012;-7.064;2023-12-22T07:40:06;99548.28;;;5.70;100.00
60240;BME280;46102;39.012;-7.064;2023-12-22T07:42:07;99549.91;;;5.71;100.00
60240;BME280;46102;39.012;-7.064;2023-12-22T07:44:08;99545.56;;;5.70;100.00
60240;BME280;46102;39.012;-7.064;2023-12-22T07:46:16;99547.44;;;5.69;100.00
60240;BME280;46102;39.012;-7.064;2023-12-22T07:48:17;99553.22;;;5.78;100.00
60240;BME280;46102;39.012;-7.064;2023-12-22T07:50:18;99557.09;;;5.87;100.00
60240;BME280;46102;39.012;-7.064;2023-12-22T07:52:19;99557.16;;;5.92;100.00
60240;BME280;46102;39.012;-7.064;2023-12-22T07:54:20;99559.66;;;5.99;100.00
60240;BME280;46102;39.012;-7.064;2023-12-22T07:56:21;99558.59;;;6.05;100.00
60240;BME280;46102;39.012;-7.064;2023-12-22T07:58:21;99556.75;;;6.11;100.00
60240;BME280;46102;39.012;-7.064;2023-12-22T08:00:22;99557.06;;;6.19;100.00
60240;BME280;46102;39.012;-7.064;2023-12-22T08:02:23;99553.00;;;6.27;100.00
60240;BME280;46102;39.012;-7.064;2023-12-22T08:04:24;99562.31;;;6.36;100.00
60240;BME280;46102;39.012;-7.064;2023-12-22T08:06:24;99561.00;;;6.44;100.00
60240;BME280;46102;39.012;-7.064;2023-12-22T08:08:25;99570.03;;;6.55;100.00
60240;BME280;46102;39.012;-7.064;2023-12-22T08:10:26;99567.94;;;6.67;100.00
60240;BME280;46102;39.012;-7.064;2023-12-22T08:12:28;99570.13;;;6.75;100.00
60240;BME280;46102;39.012;-7.064;2023-12-22T08:14:29;99570.41;;;6.79;100.00
60240;BME280;46102;39.012;-7.064;2023-12-22T08:16:29;99575.63;;;6.85;100.00
60240;BME280;46102;39.012;-7.064;2023-12-22T08:18:30;99568.56;;;6.95;100.00
60240;BME280;46102;39.012;-7.064;2023-12-22T08:20:31;99576.22;;;7.13;100.00
60240;BME280;46102;39.012;-7.064;2023-12-22T08:22:32;99574.63;;;7.38;100.00
60240;BME280;46102;39.012;-7.064;2023-12-22T08:24:33;99567.56;;;7.67;100.00
60240;BME280;46102;39.012;-7.064;2023-12-22T08:26:34;99575.47;;;7.95;100.00
60240;BME280;46102;39.012;-7.064;2023-12-22T08:28:34;99568.31;;;8.29;100.00
60240;BME280;46102;39.012;-7.064;2023-12-22T08:30:35;99573.44;;;8.57;100.00
60240;BME280;46102;39.012;-7.064;2023-12-22T08:32:36;99576.38;;;8.75;100.00
60240;BME280;46102;39.012;-7.064;2023-12-22T08:34:37;99580.19;;;8.80;100.00
60240;BME280;46102;39.012;-7.064;2023-12-22T08:36:38;99581.84;;;8.75;100.00
60240;BME280;46102;39.012;-7.064;2023-12-22T08:38:38;99589.00;;;8.71;100.00
60240;BME280;46102;39.012;-7.064;2023-12-22T08:40:40;99586.53;;;8.70;100.00
60240;BME280;46102;39.012;-7.064;2023-12-22T08:42:41;99589.50;;;8.73;100.00
60240;BME280;46102;39.012;-7.064;2023-12-22T08:44:42;99589.47;;;8.84;100.00
60240;BME280;46102;39.012;-7.064;2023-12-22T08:46:43;99590.72;;;9.12;100.00
60240;BME280;46102;39.012;-7.064;2023-12-22T08:48:44;99590.28;;;9.39;100.00
60240;BME280;46102;39.012;-7.064;2023-12-22T08:50:45;99592.75;;;9.75;100.00
60240;BME280;46102;39.012;-7.064;2023-12-22T08:52:46;99601.41;;;10.16;100.00
60240;BME280;46102;39.012;-7.064;2023-12-22T08:54:47;99598.56;;;10.56;100.00
60240;BME280;46102;39.012;-7.064;2023-12-22T08:56:47;99605.88;;;10.66;100.00
60240;BME280;46102;39.012;-7.064;2023-12-22T08:58:48;99603.41;;;10.64;100.00
60240;BME280;46102;39.012;-7.064;2023-12-22T09:00:52;99605.94;;;10.60;100.00
60240;BME280;46102;39.012;-7.064;2023-12-22T09:02:52;99606.44;;;10.62;100.00
60240;BME280;46102;39.012;-7.064;2023-12-22T09:04:54;99615.72;;;10.67;100.00
60240;BME280;46102;39.012;-7.064;2023-12-22T09:06:55;99616.16;;;10.79;100.00
60240;BME280;46102;39.012;-7.064;2023-12-22T09:08:56;99615.59;;;11.01;100.00
60240;BME280;46102;39.012;-7.064;2023-12-22T09:10:56;99627.94;;;11.22;100.00
60240;BME280;46102;39.012;-7.064;2023-12-22T09:12:57;99617.03;;;11.36;100.00
60240;BME280;46102;39.012;-7.064;2023-12-22T09:14:58;99620.69;;;11.51;100.00
60240;BME280;46102;39.012;-7.064;2023-12-22T09:16:59;99619.88;;;11.69;100.00
60240;BME280;46102;39.012;-7.064;2023-12-22T09:19:00;99624.09;;;11.80;100.00
60240;BME280;46102;39.012;-7.064;2023-12-22T09:21:01;99620.13;;;12.05;100.00
60240;BME280;46102;39.012;-7.064;2023-12-22T09:23:03;99625.03;;;12.22;100.00
60240;BME280;46102;39.012;-7.064;2023-12-22T09:25:07;99620.94;;;12.39;100.00
60240;BME280;46102;39.012;-7.064;2023-12-22T09:27:09;99633.50;;;12.59;100.00
60240;BME280;46102;39.012;-7.064;2023-12-22T09:29:10;99625.84;;;12.69;100.00
60240;BME280;46102;39.012;-7.064;2023-12-22T09:31:11;99631.84;;;12.85;100.00
60240;BME280;46102;39.012;-7.064;2023-12-22T09:33:13;99625.22;;;13.00;100.00
60240;BME280;46102;39.012;-7.064;2023-12-22T09:35:14;99624.16;;;13.24;100.00
60240;BME280;46102;39.012;-7.064;2023-12-22T09:37:16;99626.41;;;13.49;100.00
60240;BME280;46102;39.012;-7.064;2023-12-22T09:39:16;99631.44;;;13.70;100.00
60240;BME280;46102;39.012;-7.064;2023-12-22T09:41:17;99626.16;;;13.82;100.00
60240;BME280;46102;39.012;-7.064;2023-12-22T09:43:19;99623.09;;;14.06;100.00
60240;BME280;46102;39.012;-7.064;2023-12-22T09:45:21;99626.84;;;14.33;100.00
60240;BME280;46102;39.012;-7.064;2023-12-22T09:47:22;99627.19;;;14.63;96.34
60240;BME280;46102;39.012;-7.064;2023-12-22T09:49:23;99623.03;;;14.83;93.98
60240;BME280;46102;39.012;-7.064;2023-12-22T09:51:26;99628.44;;;14.96;90.99
60240;BME280;46102;39.012;-7.064;2023-12-22T09:53:28;99624.81;;;14.78;90.94
60240;BME280;46102;39.012;-7.064;2023-12-22T09:55:32;99622.31;;;14.60;93.49
60240;BME280;46102;39.012;-7.064;2023-12-22T09:57:35;99634.59;;;14.53;95.83
60240;BME280;46102;39.012;-7.064;2023-12-22T09:59:36;99631.00;;;14.53;96.26
60240;BME280;46102;39.012;-7.064;2023-12-22T10:01:43;99626.28;;;14.53;96.69
60240;BME280;46102;39.012;-7.064;2023-12-22T10:03:46;99640.41;;;14.52;98.09
60240;BME280;46102;39.012;-7.064;2023-12-22T10:05:47;99635.78;;;14.61;99.67
60240;BME280;46102;39.012;-7.064;2023-12-22T10:07:48;99644.50;;;14.86;97.81
60240;BME280;46102;39.012;-7.064;2023-12-22T10:09:51;99638.28;;;15.29;93.42
60240;BME280;46102;39.012;-7.064;2023-12-22T10:11:53;99626.94;;;15.56;91.74
60240;BME280;46102;39.012;-7.064;2023-12-22T10:13:55;99639.66;;;15.75;88.13
60240;BME280;46102;39.012;-7.064;2023-12-22T10:15:56;99644.22;;;16.06;84.56
60240;BME280;46102;39.012;-7.064;2023-12-22T10:17:58;99641.34;;;16.49;78.85
60240;BME280;46102;39.012;-7.064;2023-12-22T10:19:59;99630.00;;;16.89;76.07
60240;BME280;46102;39.012;-7.064;2023-12-22T10:22:00;99635.09;;;17.08;75.66
60240;BME280;46102;39.012;-7.064;2023-12-22T10:24:00;99645.72;;;17.06;74.86
60240;BME280;46102;39.012;-7.064;2023-12-22T10:26:01;99635.53;;;17.19;72.81
60240;BME280;46102;39.012;-7.064;2023-12-22T10:28:02;99640.50;;;17.55;68.77
60240;BME280;46102;39.012;-7.064;2023-12-22T10:30:03;99622.16;;;17.63;66.88
60240;BME280;46102;39.012;-7.064;2023-12-22T10:32:05;99632.03;;;17.52;66.55
60240;BME280;46102;39.012;-7.064;2023-12-22T10:34:06;99633.69;;;17.32;67.94
60240;BME280;46102;39.012;-7.064;2023-12-22T10:36:07;99628.75;;;17.08;69.62
60240;BME280;46102;39.012;-7.064;2023-12-22T10:38:08;99634.84;;;16.92;70.46